Time;durP1;ratioP1;P1;durP2;ratioP2;P2;SDS_P1;SDS_P2;PMS_P1;PMS_P2;Temp;Humidity;BMP_temperature;BMP_pressure;BME280_temperature;BME280_humidity;BME280_pressure;Samples;Min_cycle;Max_cycle;Signal;HPM_P1;HPM_P2
2023/01/15 00:01:16;;;;;;;0.50;0.50;;;6.10;99.90;;;;;;4988869;28;20074;-84
2023/01/15 00:03:41;;;;;;;0.50;0.50;;;6.00;99.90;;;;;;4989591;28;20048;-85
2023/01/15 00:06:07;;;;;;;0.38;0.38;;;6.00;99.90;;;;;;4991975;28;20037;-86
2023/01/15 00:08:34;;;;;;;0.70;0.70;;;6.00;99.90;;;;;;4987849;28;20037;-85
2023/01/15 00:11:02;;;;;;;0.52;0.52;;;6.10;99.90;;;;;;4992403;28;20042;-86
2023/01/15 00:13:28;;;;;;;0.40;0.40;;;6.10;99.90;;;;;;4997839;28;20154;-87
2023/01/15 00:16:00;;;;;;;0.50;0.50;;;6.10;99.90;;;;;;4959910;28;20428;-86
2023/01/15 00:18:26;;;;;;;0.45;0.45;;;6.10;99.90;;;;;;4959656;28;20050;-86
2023/01/15 00:21:01;;;;;;;0.65;0.65;;;6.10;99.90;;;;;;4976263;28;20034;-88
2023/01/15 00:28:59;;;;;;;0.40;0.40;;;6.10;99.90;;;;;;4990128;28;20130;-87
2023/01/15 00:31:26;;;;;;;0.60;0.60;;;6.10;99.90;;;;;;4987839;28;20121;-86
2023/01/15 00:33:52;;;;;;;0.65;0.65;;;6.10;99.90;;;;;;4992236;28;20097;-88
2023/01/15 00:36:17;;;;;;;0.60;0.60;;;6.10;99.90;;;;;;4990727;28;20042;-88
2023/01/15 00:38:43;;;;;;;0.50;0.50;;;6.10;99.90;;;;;;4978932;28;20038;-87
2023/01/15 00:41:09;;;;;;;0.65;0.65;;;6.10;99.90;;;;;;4976026;28;20061;-88
2023/01/15 00:43:34;;;;;;;0.43;0.43;;;6.10;99.90;;;;;;4976644;28;20042;-85
2023/01/15 00:46:00;;;;;;;2.60;2.50;;;6.10;99.90;;;;;;4976973;28;20061;-85
2023/01/15 00:48:26;;;;;;;0.50;0.50;;;6.10;99.90;;;;;;4975728;28;20053;-86
2023/01/15 00:50:51;;;;;;;0.50;0.50;;;6.00;99.90;;;;;;4977342;28;20049;-85
2023/01/15 00:53:17;;;;;;;0.40;0.40;;;6.00;99.90;;;;;;4979644;28;20106;-84
2023/01/15 00:55:43;;;;;;;0.50;0.50;;;6.00;99.90;;;;;;4998396;28;20507;-85
2023/01/15 00:58:09;;;;;;;0.50;0.50;;;6.00;99.90;;;;;;4970409;28;20046;-85
2023/01/15 01:00:34;;;;;;;0.40;0.40;;;6.00;99.90;;;;;;4989975;28;20054;-83
2023/01/15 01:03:00;;;;;;;1.38;1.33;;;6.10;99.90;;;;;;4976755;28;20070;-88
2023/01/15 01:05:26;;;;;;;0.60;0.60;;;6.30;99.90;;;;;;4990183;28;20131;-86
2023/01/15 01:07:51;;;;;;;0.40;0.40;;;6.10;99.90;;;;;;4975722;28;20038;-87
2023/01/15 01:10:17;;;;;;;0.60;0.60;;;6.10;99.90;;;;;;4972622;28;20129;-86
2023/01/15 01:12:43;;;;;;;0.45;0.45;;;6.00;99.90;;;;;;4990623;28;20042;-86
2023/01/15 01:15:09;;;;;;;0.50;0.50;;;6.00;99.90;;;;;;4990181;28;20054;-87
2023/01/15 01:17:37;;;;;;;0.60;0.60;;;6.10;99.90;;;;;;4974556;28;20057;-87
2023/01/15 01:20:03;;;;;;;0.65;0.65;;;6.10;99.90;;;;;;4973317;28;20101;-85
2023/01/15 01:22:29;;;;;;;0.45;0.45;;;6.10;99.90;;;;;;4969450;28;20069;-87
2023/01/15 01:24:55;;;;;;;0.50;0.50;;;6.10;99.90;;;;;;4966818;28;20125;-86
2023/01/15 01:27:20;;;;;;;0.57;0.57;;;6.00;99.90;;;;;;4990838;28;20128;-86
2023/01/15 01:29:46;;;;;;;0.60;0.60;;;6.10;99.90;;;;;;4987748;28;20392;-87
2023/01/15 01:32:12;;;;;;;0.57;0.57;;;6.20;99.90;;;;;;4959321;28;20038;-86
2023/01/15 01:34:38;;;;;;;0.50;0.50;;;6.00;99.90;;;;;;4967025;28;20074;-86
2023/01/15 01:37:06;;;;;;;0.40;0.40;;;6.00;99.90;;;;;;5008942;28;20042;-87
2023/01/15 01:39:32;;;;;;;0.40;0.40;;;5.90;99.90;;;;;;4991822;28;20108;-87
2023/01/15 01:41:58;;;;;;;0.45;0.45;;;6.00;99.90;;;;;;4989795;28;20096;-87
2023/01/15 01:44:35;;;;;;;0.60;0.60;;;6.20;99.90;;;;;;4972247;28;20081;-86
2023/01/15 01:47:05;;;;;;;0.50;0.50;;;6.30;99.90;;;;;;4990797;28;20142;-86
2023/01/15 01:49:32;;;;;;;0.50;0.50;;;6.30;99.90;;;;;;4989531;28;20041;-87
2023/01/15 01:52:06;;;;;;;0.63;0.63;;;6.00;99.90;;;;;;4989267;28;20038;-87
2023/01/15 01:54:34;;;;;;;0.55;0.55;;;6.00;99.90;;;;;;5001987;28;20038;-86
2023/01/15 01:57:01;;;;;;;0.50;0.50;;;6.00;99.90;;;;;;4990896;28;20046;-86
2023/01/15 01:59:27;;;;;;;0.50;0.50;;;6.00;99.90;;;;;;4973644;28;20061;-86
2023/01/15 02:01:53;;;;;;;;;;;6.00;99.90;;;;;;4983740;28;20046;-85
2023/01/15 02:04:21;;;;;;;0.50;0.50;;;6.00;99.90;;;;;;4987422;28;20332;-87
2023/01/15 02:06:47;;;;;;;0.63;0.63;;;6.10;99.90;;;;;;4986722;28;20089;-86
2023/01/15 02:09:13;;;;;;;0.50;0.50;;;6.00;99.90;;;;;;4976139;28;20074;-86
2023/01/15 02:11:38;;;;;;;0.50;0.50;;;6.00;99.90;;;;;;4993746;28;20534;-87
2023/01/15 02:14:49;;;;;;;0.50;0.50;;;6.00;99.90;;;;;;4993589;28;20039;-87
2023/01/15 02:17:32;;;;;;;0.43;0.43;;;5.90;99.90;;;;;;4971868;28;20476;-85
2023/01/15 02:20:12;;;;;;;0.50;0.50;;;5.90;99.90;;;;;;4971338;28;20421;-86
2023/01/15 02:22:37;;;;;;;0.50;0.50;;;5.90;99.90;;;;;;4967369;28;20041;-86
2023/01/15 02:25:07;;;;;;;0.60;0.60;;;5.90;99.90;;;;;;4977441;28;20046;-86
2023/01/15 02:27:33;;;;;;;0.43;0.43;;;5.90;99.90;;;;;;4994788;28;20048;-86
2023/01/15 02:30:08;;;;;;;0.55;0.55;;;6.00;99.90;;;;;;4994723;28;20038;-87
2023/01/15 02:32:42;;;;;;;0.60;0.60;;;5.90;99.90;;;;;;4993909;28;20046;-86
2023/01/15 02:35:12;;;;;;;0.50;0.50;;;6.00;99.90;;;;;;4988785;28;20046;-85
2023/01/15 02:37:44;;;;;;;1.23;1.23;;;5.90;99.90;;;;;;4996924;28;20049;-90
2023/01/15 02:40:12;;;;;;;0.60;0.60;;;5.90;99.90;;;;;;4991493;28;20100;-86
2023/01/15 02:42:39;;;;;;;0.52;0.52;;;6.00;99.90;;;;;;4988299;28;20551;-86
2023/01/15 02:45:08;;;;;;;1.20;1.20;;;6.00;99.90;;;;;;4992805;28;20146;-87
2023/01/15 02:47:37;;;;;;;0.50;0.50;;;5.90;99.90;;;;;;4988590;28;20089;-87
2023/01/15 02:50:11;;;;;;;0.60;0.60;;;6.10;99.90;;;;;;4990494;28;20472;-85
2023/01/15 02:52:43;;;;;;;0.68;0.68;;;5.90;99.90;;;;;;4991620;28;20892;-89
2023/01/15 02:55:18;;;;;;;0.50;0.50;;;5.80;99.90;;;;;;4988440;28;20045;-88
2023/01/15 02:57:45;;;;;;;0.50;0.50;;;5.90;99.90;;;;;;4994530;28;20052;-88
2023/01/15 03:00:14;;;;;;;0.55;0.55;;;6.60;99.90;;;;;;4960178;28;20042;-87
2023/01/15 03:02:50;;;;;;;0.60;0.60;;;5.90;99.90;;;;;;4974743;28;20046;-87
2023/01/15 03:05:31;;;;;;;0.70;0.70;;;5.90;99.90;;;;;;4996476;28;20393;-88
2023/01/15 03:08:00;;;;;;;0.50;0.50;;;5.90;99.90;;;;;;4995422;28;20045;-87
2023/01/15 03:10:54;;;;;;;0.60;0.60;;;5.90;99.90;;;;;;4981720;28;20077;-88
2023/01/15 03:13:41;;;;;;;0.60;0.60;;;5.90;99.90;;;;;;5004921;28;20104;-88
2023/01/15 03:16:35;;;;;;;0.47;0.47;;;5.90;99.90;;;;;;4992021;28;20054;-87
2023/01/15 03:19:41;;;;;;;0.60;0.60;;;5.90;99.90;;;;;;4975793;28;20039;-88
2023/01/15 03:22:13;;;;;;;0.50;0.50;;;6.00;99.90;;;;;;4985074;28;20811;-89
2023/01/15 03:24:50;;;;;;;0.68;0.68;;;6.00;99.90;;;;;;4993479;28;20141;-87
2023/01/15 03:27:16;;;;;;;24.85;3.63;;;6.10;99.90;;;;;;4994976;28;20046;-85
2023/01/15 03:29:45;;;;;;;0.52;0.52;;;6.10;99.90;;;;;;4990637;28;20044;-86
2023/01/15 03:32:11;;;;;;;0.40;0.40;;;6.00;99.90;;;;;;4992344;28;20046;-87
2023/01/15 03:34:41;;;;;;;0.60;0.60;;;6.00;99.90;;;;;;4992452;28;20046;-87
2023/01/15 03:37:07;;;;;;;0.40;0.40;;;6.00;99.90;;;;;;4990414;28;20153;-87
2023/01/15 03:39:33;;;;;;;0.60;0.60;;;6.00;99.90;;;;;;4991732;28;20042;-86
2023/01/15 03:42:29;;;;;;;0.50;0.50;;;6.00;99.90;;;;;;4975387;28;20045;-89
2023/01/15 03:44:56;;;;;;;1.63;1.55;;;6.00;99.90;;;;;;4971781;28;20054;-87
2023/01/15 03:47:38;;;;;;;0.50;0.50;;;5.90;99.90;;;;;;4972647;28;20042;-86
2023/01/15 03:50:19;;;;;;;0.50;0.50;;;5.90;99.90;;;;;;4995488;28;20043;-86
2023/01/15 03:52:56;;;;;;;0.40;0.40;;;5.90;99.90;;;;;;5015539;28;20112;-87
2023/01/15 03:55:39;;;;;;;0.50;0.50;;;5.90;99.90;;;;;;4991832;28;20046;-89
2023/01/15 03:58:13;;;;;;;0.60;0.60;;;5.90;99.90;;;;;;4992204;28;20055;-89
2023/01/15 04:00:43;;;;;;;0.50;0.50;;;5.90;99.90;;;;;;4974269;28;20385;-89
2023/01/15 04:03:10;;;;;;;2.45;2.35;;;5.80;99.90;;;;;;4987557;28;20038;-87
2023/01/15 04:05:37;;;;;;;0.60;0.60;;;5.80;99.90;;;;;;4993001;28;20491;-87
2023/01/15 04:08:03;;;;;;;0.60;0.60;;;5.80;99.90;;;;;;4996144;28;20056;-86
2023/01/15 04:10:29;;;;;;;;;;;5.80;99.90;;;;;;4990461;28;20346;-86
2023/01/15 04:12:54;;;;;;;0.70;0.70;;;5.80;99.90;;;;;;4992167;28;19945;-87
2023/01/15 04:15:20;;;;;;;0.60;0.60;;;5.80;99.90;;;;;;4988453;28;20038;-87
2023/01/15 04:17:46;;;;;;;0.50;0.50;;;5.80;99.90;;;;;;5003282;28;20093;-86
2023/01/15 04:20:12;;;;;;;0.50;0.50;;;5.80;99.90;;;;;;4964130;28;20038;-85
2023/01/15 04:22:38;;;;;;;0.50;0.50;;;5.80;99.90;;;;;;5004681;28;20459;-85
2023/01/15 04:25:05;;;;;;;0.50;0.50;;;5.90;99.90;;;;;;4970661;28;20354;-85
2023/01/15 04:27:31;;;;;;;0.40;0.40;;;5.80;99.90;;;;;;4988727;28;20093;-86
2023/01/15 04:29:57;;;;;;;0.50;0.50;;;5.80;99.90;;;;;;4990927;28;20464;-84
2023/01/15 04:32:22;;;;;;;0.75;0.75;;;5.80;99.90;;;;;;4972016;28;20076;-85
2023/01/15 04:34:49;;;;;;;0.50;0.50;;;5.80;99.90;;;;;;4990996;28;20484;-85
2023/01/15 04:37:16;;;;;;;0.60;0.60;;;5.80;99.90;;;;;;4989462;28;20123;-87
2023/01/15 04:39:42;;;;;;;0.52;0.52;;;5.80;99.90;;;;;;4988568;28;20065;-85
2023/01/15 04:45:00;;;;;;;0.50;0.50;;;5.90;99.90;;;;;;4975141;28;20089;-85
2023/01/15 04:47:29;;;;;;;0.60;0.60;;;5.70;99.90;;;;;;4991571;28;20050;-86
2023/01/15 04:49:55;;;;;;;0.45;0.45;;;5.70;99.90;;;;;;4993987;28;20749;-86
2023/01/15 04:52:21;;;;;;;0.60;0.60;;;5.70;99.90;;;;;;4972214;28;20129;-88
2023/01/15 04:54:46;;;;;;;0.75;0.75;;;5.70;99.90;;;;;;4974604;28;20053;-86
2023/01/15 04:57:12;;;;;;;0.70;0.70;;;5.70;99.90;;;;;;5003983;28;20661;-86
2023/01/15 04:59:37;;;;;;;0.60;0.60;;;5.60;99.90;;;;;;4985162;28;20155;-86
2023/01/15 05:02:03;;;;;;;0.43;0.43;;;5.60;99.90;;;;;;4974121;28;20053;-87
2023/01/15 05:04:29;;;;;;;0.50;0.50;;;5.60;99.90;;;;;;4972672;28;20045;-88
2023/01/15 05:06:55;;;;;;;0.45;0.45;;;5.60;99.90;;;;;;4973678;28;20038;-89
2023/01/15 05:09:21;;;;;;;0.50;0.50;;;5.60;99.90;;;;;;4974349;28;20043;-87
2023/01/15 05:11:46;;;;;;;0.52;0.52;;;5.50;99.90;;;;;;4967822;28;20496;-88
2023/01/15 05:14:12;;;;;;;0.60;0.60;;;5.50;99.90;;;;;;4982519;28;20046;-87
2023/01/15 05:16:38;;;;;;;0.52;0.52;;;5.70;99.90;;;;;;4971500;28;20046;-83
2023/01/15 05:19:06;;;;;;;0.68;0.68;;;5.50;99.90;;;;;;4974399;28;20054;-86
2023/01/15 05:21:35;;;;;;;0.93;0.90;;;5.50;99.90;;;;;;4987348;28;20046;-84
2023/01/15 05:24:03;;;;;;;0.63;0.63;;;5.50;99.90;;;;;;4992341;28;20049;-86
2023/01/15 05:26:31;;;;;;;1.92;1.83;;;5.50;99.90;;;;;;4986045;28;20121;-84
2023/01/15 05:28:57;;;;;;;0.52;0.52;;;5.70;99.90;;;;;;4985493;28;20053;-84
2023/01/15 05:31:24;;;;;;;0.60;0.60;;;5.50;99.90;;;;;;4973894;28;20124;-84
2023/01/15 05:33:51;;;;;;;0.60;0.60;;;5.50;99.90;;;;;;4988160;28;20384;-86
2023/01/15 05:36:20;;;;;;;0.52;0.52;;;5.40;99.90;;;;;;4985905;28;20053;-85
2023/01/15 05:38:45;;;;;;;0.52;0.52;;;5.40;99.90;;;;;;4991033;28;20034;-85
2023/01/15 05:44:01;;;;;;;0.40;0.40;;;5.30;99.90;;;;;;5006389;28;20365;-86
2023/01/15 05:46:27;;;;;;;0.50;0.50;;;5.30;99.90;;;;;;4987976;28;20077;-87
2023/01/15 05:48:53;;;;;;;0.57;0.57;;;5.30;99.90;;;;;;4990566;28;20042;-86
2023/01/15 05:51:19;;;;;;;0.73;0.73;;;5.60;99.90;;;;;;4984814;28;20043;-86
2023/01/15 05:53:45;;;;;;;0.65;0.65;;;5.30;99.90;;;;;;4989844;28;20039;-86
2023/01/15 05:56:11;;;;;;;0.60;0.60;;;5.20;99.90;;;;;;4988490;28;20550;-86
2023/01/15 05:58:37;;;;;;;0.95;0.95;;;5.20;99.90;;;;;;4969932;28;20064;-85
2023/01/15 06:01:09;;;;;;;;;;;5.10;99.90;;;;;;4972136;28;20096;-88
2023/01/15 06:03:35;;;;;;;0.65;0.65;;;5.10;99.90;;;;;;4988778;28;19918;-88
2023/01/15 06:06:01;;;;;;;0.65;0.65;;;5.20;99.90;;;;;;4986031;28;20117;-88
2023/01/15 06:08:27;;;;;;;0.95;0.95;;;5.10;99.90;;;;;;4970439;28;20050;-88
2023/01/15 06:10:53;;;;;;;0.60;0.60;;;5.10;99.90;;;;;;4984506;28;20042;-85
2023/01/15 06:13:18;;;;;;;0.60;0.60;;;5.10;99.90;;;;;;4989590;28;20042;-85
2023/01/15 06:15:44;;;;;;;0.57;0.57;;;5.10;99.90;;;;;;4987123;28;20627;-85
2023/01/15 06:18:11;;;;;;;0.60;0.60;;;5.20;99.90;;;;;;4969860;28;20042;-87
2023/01/15 06:20:38;;;;;;;0.63;0.63;;;5.20;99.90;;;;;;4984749;28;20443;-84
2023/01/15 06:23:04;;;;;;;0.70;0.70;;;5.10;99.90;;;;;;4988396;28;20504;-84
2023/01/15 06:25:34;;;;;;;0.60;0.60;;;5.00;99.90;;;;;;4972345;28;20476;-84
2023/01/15 06:27:59;;;;;;;0.57;0.57;;;5.20;99.90;;;;;;4971617;28;20039;-84
2023/01/15 06:30:25;;;;;;;0.60;0.60;;;5.10;99.90;;;;;;4985656;28;20046;-85
2023/01/15 06:32:51;;;;;;;0.60;0.60;;;5.10;99.90;;;;;;4992424;28;20034;-83
2023/01/15 06:35:16;;;;;;;0.70;0.70;;;5.10;99.90;;;;;;4998534;28;20046;-86
2023/01/15 06:37:42;;;;;;;0.57;0.57;;;5.10;99.90;;;;;;5001006;28;20085;-86
2023/01/15 06:40:09;;;;;;;0.60;0.60;;;5.10;99.90;;;;;;4990310;28;20074;-83
2023/01/15 06:48:03;;;;;;;0.50;0.50;;;5.10;99.90;;;;;;4989799;28;20106;-85
2023/01/15 06:50:28;;;;;;;0.65;0.65;;;5.00;99.90;;;;;;4986776;28;20125;-84
2023/01/15 06:52:54;;;;;;;0.50;0.50;;;5.00;99.90;;;;;;4967673;28;20046;-86
2023/01/15 06:55:22;;;;;;;0.63;0.63;;;5.10;99.90;;;;;;4993419;28;20042;-85
2023/01/15 06:57:47;;;;;;;0.60;0.60;;;5.10;99.90;;;;;;4979046;28;20136;-85
2023/01/15 07:00:13;;;;;;;0.70;0.70;;;5.40;99.90;;;;;;4990209;28;20540;-85
2023/01/15 07:02:40;;;;;;;0.60;0.60;;;5.10;99.90;;;;;;4978429;28;20046;-87
2023/01/15 07:05:06;;;;;;;0.60;0.60;;;5.10;99.90;;;;;;4993968;28;20130;-86
2023/01/15 07:07:32;;;;;;;0.60;0.60;;;5.20;99.90;;;;;;4991394;28;20125;-85
2023/01/15 07:09:58;;;;;;;;;;;5.10;99.90;;;;;;4993578;28;20460;-85
2023/01/15 07:12:24;;;;;;;0.77;0.77;;;5.10;99.90;;;;;;4978746;28;19971;-86
2023/01/15 07:14:50;;;;;;;0.60;0.60;;;5.10;99.90;;;;;;4998965;28;20072;-85
2023/01/15 07:17:16;;;;;;;0.88;0.88;;;5.10;99.90;;;;;;4990919;28;20085;-85
2023/01/15 07:19:43;;;;;;;1.67;1.67;;;5.10;99.90;;;;;;4991911;28;20042;-84
2023/01/15 07:22:09;;;;;;;0.60;0.60;;;5.10;99.90;;;;;;4992789;28;20053;-84
2023/01/15 07:24:35;;;;;;;0.50;0.50;;;5.00;99.90;;;;;;4993167;28;20408;-84
2023/01/15 07:27:01;;;;;;;0.93;0.93;;;5.00;99.90;;;;;;4991409;28;20046;-85
2023/01/15 07:29:27;;;;;;;0.70;0.70;;;5.00;99.90;;;;;;4992410;28;20084;-86
2023/01/15 07:31:53;;;;;;;0.50;0.50;;;5.10;99.90;;;;;;4991513;28;20039;-85
2023/01/15 07:34:19;;;;;;;0.70;0.70;;;5.10;99.90;;;;;;4991541;28;20049;-85
2023/01/15 07:36:44;;;;;;;0.55;0.55;;;5.10;99.90;;;;;;4976184;28;20081;-84
2023/01/15 07:39:11;;;;;;;0.60;0.60;;;5.00;99.90;;;;;;4992472;28;20136;-86
2023/01/15 07:50:04;;;;;;;0.60;0.60;;;5.00;99.90;;;;;;4986162;28;20040;-87
2023/01/15 07:52:30;;;;;;;2.00;1.38;;;5.10;99.90;;;;;;4989292;28;20046;-88
2023/01/15 07:54:55;;;;;;;0.60;0.60;;;5.10;99.90;;;;;;4991096;28;20037;-87
2023/01/15 07:57:21;;;;;;;0.80;0.80;;;5.10;99.90;;;;;;4976088;28;20125;-86
2023/01/15 07:59:48;;;;;;;;;;;5.10;99.90;;;;;;4976159;28;20088;-86
2023/01/15 08:02:13;;;;;;;0.50;0.50;;;5.20;99.90;;;;;;4993152;28;20343;-86
2023/01/15 08:04:39;;;;;;;0.50;0.50;;;5.20;99.90;;;;;;4988056;28;20081;-85
2023/01/15 08:07:06;;;;;;;0.60;0.60;;;5.10;99.90;;;;;;4969607;28;20121;-85
2023/01/15 08:09:32;;;;;;;0.57;0.57;;;5.20;99.90;;;;;;4989439;28;20041;-85
2023/01/15 08:17:28;;;;;;;0.47;0.47;;;5.30;99.90;;;;;;4985147;28;20555;-85
2023/01/15 08:19:54;;;;;;;0.50;0.50;;;5.40;99.90;;;;;;4977103;28;20034;-85
2023/01/15 08:22:19;;;;;;;0.57;0.57;;;5.50;99.90;;;;;;4985564;28;20061;-85
2023/01/15 08:24:45;;;;;;;0.65;0.65;;;5.50;99.90;;;;;;4994721;28;20050;-86
2023/01/15 08:27:11;;;;;;;0.50;0.50;;;5.60;99.90;;;;;;4971182;28;20047;-85
2023/01/15 08:29:36;;;;;;;0.68;0.68;;;5.50;99.90;;;;;;5002105;28;20070;-84
2023/01/15 08:32:02;;;;;;;0.60;0.60;;;5.50;99.90;;;;;;4968603;28;20035;-85
2023/01/15 08:34:28;;;;;;;0.50;0.50;;;5.40;99.90;;;;;;4986940;28;20382;-85
2023/01/15 08:36:58;;;;;;;0.55;0.55;;;5.40;99.90;;;;;;4979852;28;20127;-85
2023/01/15 08:39:25;;;;;;;0.50;0.50;;;5.40;99.90;;;;;;4995277;28;20043;-86
2023/01/15 08:41:51;;;;;;;0.55;0.55;;;5.40;99.90;;;;;;4973683;28;20042;-85
2023/01/15 08:44:16;;;;;;;0.60;0.60;;;5.50;99.90;;;;;;4959045;28;20120;-84
2023/01/15 08:46:42;;;;;;;0.60;0.60;;;5.50;99.90;;;;;;4991884;28;20057;-84
2023/01/15 08:49:09;;;;;;;0.57;0.57;;;5.60;99.90;;;;;;4992585;28;20042;-85
2023/01/15 08:51:35;;;;;;;0.70;0.70;;;5.80;99.90;;;;;;4992084;28;20031;-85
2023/01/15 08:54:01;;;;;;;0.50;0.50;;;5.60;99.90;;;;;;4991047;28;20088;-85
2023/01/15 08:56:27;;;;;;;1.30;1.30;;;5.60;99.90;;;;;;4990667;28;20768;-84
2023/01/15 08:58:52;;;;;;;0.60;0.60;;;5.50;99.90;;;;;;4990974;28;20117;-85
2023/01/15 09:01:18;;;;;;;0.50;0.50;;;5.50;99.90;;;;;;4990264;28;20137;-86
2023/01/15 09:03:44;;;;;;;0.52;0.52;;;5.40;99.90;;;;;;4973669;28;20400;-86
2023/01/15 09:06:10;;;;;;;0.60;0.60;;;5.20;99.90;;;;;;4989864;28;20081;-85
2023/01/15 09:08:36;;;;;;;0.60;0.60;;;5.00;99.90;;;;;;4990706;28;20112;-86
2023/01/15 09:11:03;;;;;;;;;;;4.80;99.90;;;;;;4991184;28;20046;-85
2023/01/15 09:13:29;;;;;;;0.60;0.60;;;4.60;99.90;;;;;;4987555;28;19918;-86
2023/01/15 09:16:13;;;;;;;0.60;0.60;;;4.50;99.90;;;;;;4975122;28;20030;-85
2023/01/15 09:18:38;;;;;;;0.47;0.47;;;5.00;99.90;;;;;;4975083;28;20041;-86
2023/01/15 09:21:06;;;;;;;0.50;0.50;;;4.60;99.90;;;;;;4975441;28;20046;-86
2023/01/15 09:23:32;;;;;;;0.45;0.45;;;4.60;99.90;;;;;;4993559;28;20050;-86
2023/01/15 09:26:00;;;;;;;0.45;0.45;;;4.80;99.90;;;;;;5003279;28;20074;-85
2023/01/15 09:28:29;;;;;;;0.60;0.60;;;4.90;99.90;;;;;;4987549;28;20038;-86
2023/01/15 09:30:55;;;;;;;0.50;0.50;;;4.90;99.90;;;;;;4986802;28;20064;-86
2023/01/15 09:33:21;;;;;;;0.50;0.50;;;4.90;99.90;;;;;;4966087;28;20081;-85
2023/01/15 09:35:47;;;;;;;0.60;0.60;;;5.10;99.90;;;;;;4988422;28;20069;-85
2023/01/15 09:38:15;;;;;;;0.60;0.60;;;4.90;99.90;;;;;;4970749;28;20046;-85
2023/01/15 09:42:03;;;;;;;0.50;0.50;;;5.10;99.90;;;;;;4963662;28;20047;-84
2023/01/15 09:44:07;;;;;;;0.60;0.60;;;5.10;99.90;;;;;;4987070;28;20112;-84
2023/01/15 09:46:59;;;;;;;0.55;0.55;;;5.30;99.90;;;;;;4969926;28;20137;-88
2023/01/15 09:49:46;;;;;;;0.70;0.70;;;5.20;99.90;;;;;;4990854;28;20761;-87
2023/01/15 09:52:49;;;;;;;0.52;0.52;;;5.20;99.90;;;;;;4988116;28;20385;-86
2023/01/15 09:55:33;;;;;;;0.50;0.50;;;5.40;99.90;;;;;;4990624;28;20100;-86
2023/01/15 09:58:03;;;;;;;0.60;0.60;;;5.50;99.90;;;;;;4989119;28;20547;-83
2023/01/15 10:00:36;;;;;;;0.40;0.40;;;5.60;99.90;;;;;;4990901;28;20042;-83
2023/01/15 10:03:28;;;;;;;0.50;0.50;;;5.70;99.90;;;;;;4979650;28;20096;-84
2023/01/15 10:06:08;;;;;;;0.50;0.50;;;5.90;99.90;;;;;;4993196;28;20045;-86
2023/01/15 10:08:43;;;;;;;0.50;0.50;;;6.10;99.90;;;;;;4986049;28;20369;-84
2023/01/15 10:11:14;;;;;;;0.52;0.52;;;6.20;99.90;;;;;;4978546;28;20129;-87
2023/01/15 10:14:31;;;;;;;0.50;0.50;;;6.30;99.90;;;;;;5007624;28;20078;-84
2023/01/15 10:16:57;;;;;;;0.60;0.60;;;6.40;99.90;;;;;;4966657;28;20045;-85
2023/01/15 10:19:22;;;;;;;0.50;0.50;;;6.40;99.90;;;;;;4991129;28;20054;-85
2023/01/15 10:22:09;;;;;;;0.82;0.82;;;6.40;99.90;;;;;;4994836;28;20068;-85
2023/01/15 10:24:43;;;;;;;0.60;0.60;;;6.40;99.90;;;;;;4984102;28;20728;-86
2023/01/15 10:27:18;;;;;;;0.50;0.50;;;6.50;99.90;;;;;;4983611;28;20101;-85
2023/01/15 10:29:45;;;;;;;0.50;0.50;;;6.50;99.90;;;;;;4991017;28;20133;-87
2023/01/15 10:32:28;;;;;;;0.60;0.60;;;6.60;99.90;;;;;;4996599;28;20121;-84
2023/01/15 10:35:32;;;;;;;0.50;0.50;;;6.60;99.90;;;;;;4982224;28;20485;-81
2023/01/15 10:38:13;;;;;;;0.40;0.40;;;6.80;99.90;;;;;;5004990;28;20076;-87
2023/01/15 10:41:03;;;;;;;0.40;0.40;;;6.90;99.90;;;;;;4991169;28;20072;-85
2023/01/15 10:43:49;;;;;;;1.00;1.00;;;7.00;99.90;;;;;;4977848;28;20053;-85
2023/01/15 10:46:18;;;;;;;0.40;0.40;;;7.10;99.90;;;;;;4988534;28;20050;-84
2023/01/15 10:48:51;;;;;;;0.50;0.50;;;7.20;99.90;;;;;;4992949;28;20133;-85
2023/01/15 10:51:47;;;;;;;0.60;0.60;;;7.10;99.90;;;;;;4994376;28;20125;-86
2023/01/15 10:54:32;;;;;;;0.43;0.43;;;7.10;99.90;;;;;;4994558;28;20050;-85
2023/01/15 10:57:10;;;;;;;0.50;0.50;;;7.10;99.90;;;;;;4995692;28;20050;-86
2023/01/15 10:59:59;;;;;;;0.45;0.45;;;7.00;99.90;;;;;;4993078;28;20089;-86
2023/01/15 11:02:30;;;;;;;0.60;0.60;;;7.00;99.90;;;;;;5005175;28;20049;-87
2023/01/15 11:04:56;;;;;;;0.65;0.65;;;7.00;99.90;;;;;;4975216;28;20050;-86
2023/01/15 11:07:36;;;;;;;0.50;0.50;;;7.10;99.90;;;;;;4997827;28;20459;-85
2023/01/15 11:10:05;;;;;;;0.40;0.40;;;7.10;99.90;;;;;;4991654;28;20038;-85
2023/01/15 11:21:13;;;;;;;0.40;0.40;;;7.40;99.90;;;;;;4992671;28;20090;-85
2023/01/15 11:23:39;;;;;;;0.50;0.50;;;7.40;99.90;;;;;;4997074;28;20468;-84
2023/01/15 11:26:05;;;;;;;0.50;0.50;;;7.40;99.90;;;;;;4992691;28;20042;-85
2023/01/15 11:28:42;;;;;;;0.57;0.57;;;7.40;99.90;;;;;;4996205;28;20034;-88
2023/01/15 11:31:10;;;;;;;0.50;0.50;;;7.40;99.90;;;;;;4989338;28;20042;-85
2023/01/15 11:33:37;;;;;;;0.50;0.50;;;7.40;99.90;;;;;;4994509;28;20503;-84
2023/01/15 11:36:06;;;;;;;0.40;0.40;;;7.40;99.90;;;;;;4996173;28;20057;-84
2023/01/15 11:38:46;;;;;;;0.60;0.60;;;7.40;99.90;;;;;;4991062;28;20044;-84
2023/01/15 11:41:21;;;;;;;0.47;0.47;;;7.40;99.90;;;;;;4987077;28;20053;-86
2023/01/15 11:52:21;;;;;;;1.50;1.40;;;7.20;99.90;;;;;;5000539;28;20000;-87
2023/01/15 11:54:51;;;;;;;1.00;1.00;;;7.20;99.90;;;;;;5000957;28;20074;-86
2023/01/15 11:57:31;;;;;;;0.50;0.50;;;7.20;99.90;;;;;;4987014;28;20173;-85
2023/01/15 11:59:58;;;;;;;0.50;0.50;;;7.10;99.90;;;;;;4992694;28;20602;-86
2023/01/15 12:02:27;;;;;;;0.50;0.50;;;7.00;99.90;;;;;;4991892;28;20052;-86
2023/01/15 12:04:57;;;;;;;0.60;0.60;;;6.80;99.90;;;;;;4989774;28;20148;-85
2023/01/15 12:07:25;;;;;;;0.60;0.60;;;6.60;99.90;;;;;;4991496;28;20189;-84
2023/01/15 12:10:06;;;;;;;1.70;0.90;;;6.40;99.90;;;;;;4991921;28;20046;-87
2023/01/15 12:12:40;;;;;;;0.50;0.50;;;6.30;99.90;;;;;;4992871;28;20498;-85
2023/01/15 12:15:22;;;;;;;0.50;0.50;;;6.20;99.90;;;;;;4995516;28;20046;-85
2023/01/15 12:18:08;;;;;;;0.60;0.60;;;6.10;99.90;;;;;;5005929;28;20069;-86
2023/01/15 12:20:40;;;;;;;0.60;0.60;;;6.20;99.90;;;;;;4999337;28;20042;-84
2023/01/15 12:23:23;;;;;;;0.57;0.57;;;6.20;99.90;;;;;;5003838;28;20050;-84
2023/01/15 12:26:15;;;;;;;0.80;0.80;;;6.10;99.90;;;;;;4995636;28;20497;-89
2023/01/15 12:28:55;;;;;;;0.40;0.40;;;6.00;99.90;;;;;;4991185;28;20088;-86
2023/01/15 12:31:40;;;;;;;0.60;0.60;;;5.50;99.90;;;;;;4990130;28;20042;-89
2023/01/15 12:34:40;;;;;;;0.60;0.60;;;4.80;99.90;;;;;;4994979;28;20054;-87
2023/01/15 12:37:21;;;;;;;0.60;0.60;;;4.30;99.90;;;;;;4975735;28;21525;-87
2023/01/15 12:39:53;;;;;;;0.50;0.50;;;4.10;99.90;;;;;;5006138;28;20202;-89
2023/01/15 12:45:13;;;;;;;0.60;0.60;;;4.50;99.90;;;;;;4989367;28;20512;-87
2023/01/15 12:47:51;;;;;;;0.70;0.70;;;4.10;99.90;;;;;;4988578;28;20066;-90
2023/01/15 12:50:26;;;;;;;0.65;0.65;;;4.20;99.90;;;;;;4973299;28;20039;-87
2023/01/15 12:53:13;;;;;;;0.60;0.60;;;4.20;99.90;;;;;;4969181;28;20042;-87
2023/01/15 12:55:49;;;;;;;0.60;0.60;;;4.30;99.90;;;;;;4992628;28;20360;-90
2023/01/15 12:58:30;;;;;;;0.60;0.60;;;4.30;99.90;;;;;;5008554;28;20054;-89
2023/01/15 13:01:08;;;;;;;0.60;0.60;;;4.30;99.90;;;;;;4986518;28;20049;-89
2023/01/15 13:03:48;;;;;;;0.63;0.63;;;4.30;99.90;;;;;;4994880;28;20049;-88
2023/01/15 13:06:15;;;;;;;0.60;0.60;;;4.70;99.90;;;;;;4973820;28;20048;-86
2023/01/15 13:08:47;;;;;;;0.60;0.60;;;4.80;99.90;;;;;;4991780;28;20042;-86
2023/01/15 13:11:13;;;;;;;0.68;0.68;;;4.40;99.90;;;;;;4998017;28;20088;-88
2023/01/15 13:13:41;;;;;;;0.60;0.60;;;4.90;99.90;;;;;;4991606;28;20038;-89
2023/01/15 13:16:20;;;;;;;0.60;0.60;;;5.00;99.90;;;;;;4977215;28;20118;-88
2023/01/15 13:18:52;;;;;;;0.60;0.60;;;4.90;99.90;;;;;;4990930;28;20089;-90
2023/01/15 13:21:23;;;;;;;0.55;0.55;;;4.40;99.90;;;;;;4981583;28;20477;-86
2023/01/15 13:24:00;;;;;;;0.50;0.50;;;4.40;99.90;;;;;;4969536;28;20050;-88
2023/01/15 13:26:32;;;;;;;;;;;4.50;99.90;;;;;;4988387;28;20042;-86
2023/01/15 13:29:24;;;;;;;0.70;0.70;;;4.50;99.90;;;;;;4994666;28;19921;-88
2023/01/15 13:32:09;;;;;;;0.50;0.50;;;4.40;99.90;;;;;;4978346;28;20124;-88
2023/01/15 13:34:47;;;;;;;0.70;0.70;;;4.40;99.90;;;;;;4976551;28;20050;-91
2023/01/15 13:37:39;;;;;;;0.70;0.70;;;4.50;99.90;;;;;;4992413;28;20072;-90
2023/01/15 13:40:27;;;;;;;0.50;0.50;;;4.50;99.90;;;;;;4968688;28;20132;-91
2023/01/15 13:42:54;;;;;;;0.60;0.60;;;4.50;99.90;;;;;;4995768;28;20080;-89
2023/01/15 13:45:37;;;;;;;0.50;0.50;;;4.70;99.90;;;;;;5004800;28;20044;-90
2023/01/15 13:48:13;;;;;;;0.60;0.60;;;4.40;99.90;;;;;;4995565;28;20490;-91
2023/01/15 13:50:56;;;;;;;0.70;0.70;;;4.50;99.90;;;;;;5007447;28;20046;-89
2023/01/15 13:53:30;;;;;;;0.70;0.70;;;4.50;99.90;;;;;;4994375;28;20042;-88
2023/01/15 13:56:04;;;;;;;0.60;0.60;;;4.30;99.90;;;;;;4985172;28;20050;-87
2023/01/15 13:58:37;;;;;;;0.70;0.70;;;4.60;99.90;;;;;;4997518;28;20047;-90
2023/01/15 14:01:25;;;;;;;0.60;0.60;;;4.60;99.90;;;;;;4975987;28;20048;-90
2023/01/15 14:04:10;;;;;;;0.50;0.50;;;4.00;99.90;;;;;;4964325;28;20052;-91
2023/01/15 14:06:44;;;;;;;0.60;0.60;;;3.80;99.90;;;;;;4971207;28;20038;-91
2023/01/15 14:09:16;;;;;;;0.60;0.60;;;4.00;99.90;;;;;;4976571;28;20039;-90